<?xml version="1.0" encoding="UTF-8" standalone="no" ?>
<gpx xmlns="http://www.topografix.com/GPX/1/1" xmlns:xsi="http://www.w3.org/2001/XMLSchema-instance" xsi:schemaLocation="http://www.topografix.com/GPX/1/1 http://www.topografix.com/GPX/1/1/gpx.xsd" version="1.1" creator="VisuGPX - https://www.visugpx.com">
  <metadata>
    <name>Ligne_Autour_11-22km</name>
    <desc><![CDATA[gnerando idor:6837548_6837567_8321596_12827438_13194341_]]></desc>
  </metadata>
  <trk>
    <name><![CDATA[Ligne_Musse_12.3km-6837567]]></name>
    <extensions>
      <line xmlns="http://www.topografix.com/GPX/gpx_style/0/2">
        <color>FF00FF</color>
        <width>4</width>
      </line>
    </extensions>
    <trkseg>
      <trkpt lat="47.40771" lon="-1.37303">
        <ele>35</ele>
        <time>2024-12-22T14:36:41Z</time>
      </trkpt>
      <trkpt lat="47.40923" lon="-1.37138">
        <ele>43</ele>
        <time>2024-12-22T14:40:53Z</time>
      </trkpt>
      <trkpt lat="47.40856" lon="-1.36995">
        <ele>42</ele>
        <time>2024-12-22T14:43:30Z</time>
      </trkpt>
      <trkpt lat="47.4074" lon="-1.36887">
        <ele>38</ele>
        <time>2024-12-22T14:46:33Z</time>
      </trkpt>
      <trkpt lat="47.4062" lon="-1.36978">
        <ele>37</ele>
        <time>2024-12-22T14:49:33Z</time>
      </trkpt>
      <trkpt lat="47.40012" lon="-1.37156">
        <ele>50</ele>
        <time>2024-12-22T15:03:20Z</time>
      </trkpt>
      <trkpt lat="47.39681" lon="-1.37271">
        <ele>54</ele>
        <time>2024-12-22T15:10:54Z</time>
      </trkpt>
      <trkpt lat="47.39433" lon="-1.37311">
        <ele>51</ele>
        <time>2024-12-22T15:16:27Z</time>
      </trkpt>
      <trkpt lat="47.39304" lon="-1.37388">
        <ele>49</ele>
        <time>2024-12-22T15:19:32Z</time>
      </trkpt>
      <trkpt lat="47.39398" lon="-1.37509">
        <ele>50</ele>
        <time>2024-12-22T15:22:19Z</time>
      </trkpt>
      <trkpt lat="47.39517" lon="-1.37537">
        <ele>51</ele>
        <time>2024-12-22T15:24:59Z</time>
      </trkpt>
      <trkpt lat="47.39699" lon="-1.37497">
        <ele>53</ele>
        <time>2024-12-22T15:29:05Z</time>
      </trkpt>
      <trkpt lat="47.39805" lon="-1.37724">
        <ele>55</ele>
        <time>2024-12-22T15:33:14Z</time>
      </trkpt>
      <trkpt lat="47.39868" lon="-1.37909">
        <ele>58</ele>
        <time>2024-12-22T15:36:21Z</time>
      </trkpt>
      <trkpt lat="47.39803" lon="-1.38">
        <ele>56</ele>
        <time>2024-12-22T15:38:21Z</time>
      </trkpt>
      <trkpt lat="47.39753" lon="-1.3804">
        <ele>55</ele>
        <time>2024-12-22T15:39:36Z</time>
      </trkpt>
      <trkpt lat="47.39783" lon="-1.38328">
        <ele>53</ele>
        <time>2024-12-22T15:44:00Z</time>
      </trkpt>
      <trkpt lat="47.39755" lon="-1.38474">
        <ele>51</ele>
        <time>2024-12-22T15:46:17Z</time>
      </trkpt>
      <trkpt lat="47.39778" lon="-1.38591">
        <ele>51</ele>
        <time>2024-12-22T15:48:07Z</time>
      </trkpt>
      <trkpt lat="47.39804" lon="-1.38764">
        <ele>48</ele>
        <time>2024-12-22T15:50:47Z</time>
      </trkpt>
      <trkpt lat="47.39941" lon="-1.3896">
        <ele>48</ele>
        <time>2024-12-22T15:55:01Z</time>
      </trkpt>
      <trkpt lat="47.40067" lon="-1.3937">
        <ele>43</ele>
        <time>2024-12-22T16:01:48Z</time>
      </trkpt>
      <trkpt lat="47.40107" lon="-1.3943">
        <ele>43</ele>
        <time>2024-12-22T16:03:04Z</time>
      </trkpt>
      <trkpt lat="47.40271" lon="-1.39274">
        <ele>39</ele>
        <time>2024-12-22T16:07:24Z</time>
      </trkpt>
      <trkpt lat="47.404" lon="-1.39188">
        <ele>34</ele>
        <time>2024-12-22T16:10:33Z</time>
      </trkpt>
      <trkpt lat="47.40403" lon="-1.39312">
        <ele>34</ele>
        <time>2024-12-22T16:12:25Z</time>
      </trkpt>
      <trkpt lat="47.40393" lon="-1.39407">
        <ele>36</ele>
        <time>2024-12-22T16:13:52Z</time>
      </trkpt>
      <trkpt lat="47.40437" lon="-1.39548">
        <ele>35</ele>
        <time>2024-12-22T16:16:12Z</time>
      </trkpt>
      <trkpt lat="47.40474" lon="-1.39704">
        <ele>35</ele>
        <time>2024-12-22T16:18:42Z</time>
      </trkpt>
      <trkpt lat="47.40573" lon="-1.39949">
        <ele>36</ele>
        <time>2024-12-22T16:22:59Z</time>
      </trkpt>
      <trkpt lat="47.40702" lon="-1.40183">
        <ele>32</ele>
        <time>2024-12-22T16:27:32Z</time>
      </trkpt>
      <trkpt lat="47.40828" lon="-1.40282">
        <ele>27</ele>
        <time>2024-12-22T16:30:43Z</time>
      </trkpt>
      <trkpt lat="47.40992" lon="-1.40423">
        <ele>20</ele>
        <time>2024-12-22T16:34:56Z</time>
      </trkpt>
      <trkpt lat="47.41042" lon="-1.40479">
        <ele>20</ele>
        <time>2024-12-22T16:36:19Z</time>
      </trkpt>
      <trkpt lat="47.41052" lon="-1.40575">
        <ele>19</ele>
        <time>2024-12-22T16:37:47Z</time>
      </trkpt>
      <trkpt lat="47.41244" lon="-1.40765">
        <ele>19</ele>
        <time>2024-12-22T16:42:56Z</time>
      </trkpt>
      <trkpt lat="47.41438" lon="-1.40965">
        <ele>16</ele>
        <time>2024-12-22T16:48:11Z</time>
      </trkpt>
      <trkpt lat="47.4151" lon="-1.4086">
        <ele>16</ele>
        <time>2024-12-22T16:50:26Z</time>
      </trkpt>
      <trkpt lat="47.41456" lon="-1.40317">
        <ele>17</ele>
        <time>2024-12-22T16:58:42Z</time>
      </trkpt>
      <trkpt lat="47.41626" lon="-1.40252">
        <ele>22</ele>
        <time>2024-12-22T17:02:36Z</time>
      </trkpt>
      <trkpt lat="47.41784" lon="-1.40177">
        <ele>21</ele>
        <time>2024-12-22T17:06:18Z</time>
      </trkpt>
      <trkpt lat="47.41853" lon="-1.39858">
        <ele>22</ele>
        <time>2024-12-22T17:11:20Z</time>
      </trkpt>
      <trkpt lat="47.42096" lon="-1.39875">
        <ele>28</ele>
        <time>2024-12-22T17:16:45Z</time>
      </trkpt>
      <trkpt lat="47.42305" lon="-1.39913">
        <ele>28</ele>
        <time>2024-12-22T17:21:26Z</time>
      </trkpt>
      <trkpt lat="47.4217" lon="-1.3977">
        <ele>31</ele>
        <time>2024-12-22T17:25:07Z</time>
      </trkpt>
      <trkpt lat="47.42438" lon="-1.39411">
        <ele>27</ele>
        <time>2024-12-22T17:33:10Z</time>
      </trkpt>
      <trkpt lat="47.42517" lon="-1.39264">
        <ele>29</ele>
        <time>2024-12-22T17:35:59Z</time>
      </trkpt>
      <trkpt lat="47.4247" lon="-1.38525">
        <ele>28</ele>
        <time>2024-12-22T17:47:10Z</time>
      </trkpt>
      <trkpt lat="47.42334" lon="-1.37804">
        <ele>21</ele>
        <time>2024-12-22T17:58:25Z</time>
      </trkpt>
      <trkpt lat="47.42277" lon="-1.37361">
        <ele>24</ele>
        <time>2024-12-22T18:05:12Z</time>
      </trkpt>
      <trkpt lat="47.42109" lon="-1.3733">
        <ele>26</ele>
        <time>2024-12-22T18:08:58Z</time>
      </trkpt>
      <trkpt lat="47.41873" lon="-1.37414">
        <ele>34</ele>
        <time>2024-12-22T18:14:22Z</time>
      </trkpt>
      <trkpt lat="47.41396" lon="-1.37644">
        <ele>30</ele>
        <time>2024-12-22T18:25:32Z</time>
      </trkpt>
      <trkpt lat="47.41236" lon="-1.37694">
        <ele>37</ele>
        <time>2024-12-22T18:29:10Z</time>
      </trkpt>
      <trkpt lat="47.41205" lon="-1.37654">
        <ele>37</ele>
        <time>2024-12-22T18:30:05Z</time>
      </trkpt>
      <trkpt lat="47.41145" lon="-1.37583">
        <ele>38</ele>
        <time>2024-12-22T18:31:48Z</time>
      </trkpt>
      <trkpt lat="47.41113" lon="-1.37586">
        <ele>39</ele>
        <time>2024-12-22T18:32:30Z</time>
      </trkpt>
      <trkpt lat="47.41006" lon="-1.37387">
        <ele>39</ele>
        <time>2024-12-22T18:36:20Z</time>
      </trkpt>
      <trkpt lat="47.40885" lon="-1.37202">
        <ele>41</ele>
        <time>2024-12-22T18:40:12Z</time>
      </trkpt>
      <trkpt lat="47.40771" lon="-1.37298">
        <ele>35</ele>
        <time>2024-12-22T18:43:07Z</time>
      </trkpt>
    </trkseg>
  </trk>
</gpx>